createdAt,value
2023-07-19T00:00:51.445Z,20.00
2023-07-19T00:03:18.842Z,20.00
2023-07-19T00:05:46.269Z,19.90
2023-07-19T00:08:13.560Z,19.90
2023-07-19T00:10:41.119Z,19.90
2023-07-19T00:13:08.760Z,19.90
2023-07-19T00:15:36.180Z,20.00
2023-07-19T00:18:03.562Z,20.00
2023-07-19T00:20:31.299Z,20.00
2023-07-19T00:22:58.556Z,20.10
2023-07-19T00:25:25.970Z,20.10
2023-07-19T00:27:53.388Z,20.10
2023-07-19T00:30:21.750Z,20.10
2023-07-19T00:32:49.086Z,20.10
2023-07-19T00:35:16.865Z,20.10
2023-07-19T00:37:44.524Z,20.00
2023-07-19T00:40:12.788Z,19.90
2023-07-19T00:42:40.148Z,20.00
2023-07-19T00:45:10.021Z,20.00
2023-07-19T00:47:39.373Z,19.90
2023-07-19T00:50:09.462Z,19.90
2023-07-19T00:52:37.098Z,19.90
2023-07-19T00:55:06.928Z,19.90
2023-07-19T00:57:34.947Z,19.80
2023-07-19T01:00:02.648Z,19.80
2023-07-19T01:02:30.928Z,19.80
2023-07-19T01:05:00.715Z,19.80
2023-07-19T01:07:30.091Z,19.70
2023-07-19T01:09:57.793Z,19.70
2023-07-19T01:12:26.021Z,19.70
2023-07-19T01:14:53.355Z,19.70
2023-07-19T01:17:21.515Z,19.60
2023-07-19T01:19:51.300Z,19.50
2023-07-19T01:22:19.172Z,19.40
2023-07-19T01:24:46.556Z,19.40
2023-07-19T01:27:22.264Z,19.30
2023-07-19T01:29:51.255Z,19.40
2023-07-19T01:32:19.132Z,19.30
2023-07-19T01:34:46.549Z,19.30
2023-07-19T01:37:14.886Z,19.30
2023-07-19T01:39:42.345Z,19.30
2023-07-19T01:42:09.899Z,19.30
2023-07-19T01:44:37.234Z,19.40
2023-07-19T01:47:04.792Z,19.40
2023-07-19T01:49:32.073Z,19.40
2023-07-19T01:51:59.540Z,19.30
2023-07-19T01:54:27.049Z,19.30
2023-07-19T01:56:54.533Z,19.20
2023-07-19T01:59:22.210Z,19.10
2023-07-19T02:01:49.739Z,19.10
2023-07-19T02:04:17.234Z,19.20
2023-07-19T02:06:44.702Z,19.10
2023-07-19T02:09:12.072Z,19.20
2023-07-19T02:11:39.536Z,19.20
2023-07-19T02:14:06.849Z,19.20
2023-07-19T02:16:34.300Z,19.20
2023-07-19T02:19:03.251Z,19.20
2023-07-19T02:21:30.653Z,19.20
2023-07-19T02:23:59.161Z,19.20
2023-07-19T02:26:26.762Z,19.10
2023-07-19T02:28:54.110Z,19.10
2023-07-19T02:31:21.770Z,19.10
2023-07-19T02:33:49.265Z,19.10
2023-07-19T02:36:16.642Z,19.10
2023-07-19T02:38:45.449Z,19.00
2023-07-19T02:41:13.773Z,18.90
2023-07-19T02:43:41.074Z,18.90
2023-07-19T02:46:08.740Z,18.90
2023-07-19T02:48:36.423Z,18.90
2023-07-19T02:51:03.892Z,18.80
2023-07-19T02:53:31.291Z,18.80
2023-07-19T02:55:58.567Z,18.70
2023-07-19T02:58:26.338Z,18.60
2023-07-19T03:00:55.561Z,18.60
2023-07-19T03:03:23.066Z,18.60
2023-07-19T03:05:50.620Z,18.60
2023-07-19T03:08:17.993Z,18.50
2023-07-19T03:10:45.820Z,18.50
2023-07-19T03:13:13.259Z,18.40
2023-07-19T03:15:40.740Z,18.40
2023-07-19T03:18:08.502Z,18.40
2023-07-19T03:20:36.020Z,18.40
2023-07-19T03:23:03.500Z,18.30
2023-07-19T03:25:32.401Z,18.30
2023-07-19T03:28:00.322Z,18.30
2023-07-19T03:30:28.155Z,18.30
2023-07-19T03:32:55.532Z,18.30
2023-07-19T03:35:23.059Z,18.40
2023-07-19T03:37:50.913Z,18.30
2023-07-19T03:40:19.666Z,18.10
2023-07-19T03:42:47.578Z,18.00
2023-07-19T03:45:15.469Z,18.00
2023-07-19T03:47:43.773Z,17.90
2023-07-19T03:50:11.166Z,17.90
2023-07-19T03:52:38.795Z,17.90
2023-07-19T03:55:07.724Z,17.80
2023-07-19T03:57:37.804Z,17.80
2023-07-19T04:00:06.181Z,17.70
2023-07-19T04:02:44.705Z,17.70
2023-07-19T04:05:14.733Z,17.80
2023-07-19T04:07:42.028Z,17.80
2023-07-19T04:10:10.135Z,17.80
2023-07-19T04:12:37.610Z,17.90
2023-07-19T04:15:06.197Z,18.00
2023-07-19T04:17:33.904Z,18.10
2023-07-19T04:20:01.457Z,18.10
2023-07-19T04:22:29.591Z,18.10
2023-07-19T04:24:57.113Z,18.10
2023-07-19T04:27:24.476Z,18.10
2023-07-19T04:29:52.377Z,18.10
2023-07-19T04:32:19.769Z,18.20
2023-07-19T04:34:47.272Z,18.20
2023-07-19T04:37:15.746Z,18.20
2023-07-19T04:39:43.362Z,18.20
2023-07-19T04:42:10.944Z,18.20
2023-07-19T04:44:39.482Z,18.20
2023-07-19T04:47:07.353Z,18.10
2023-07-19T04:49:36.959Z,18.10
2023-07-19T04:52:04.532Z,18.20
2023-07-19T04:54:34.011Z,18.10
2023-07-19T04:57:01.955Z,18.10
2023-07-19T04:59:29.338Z,17.90
2023-07-19T05:01:56.859Z,17.90
2023-07-19T05:04:24.831Z,17.90
2023-07-19T05:06:52.276Z,17.90
2023-07-19T05:09:22.214Z,17.90
2023-07-19T05:11:50.146Z,17.80
2023-07-19T05:14:17.875Z,17.80
2023-07-19T05:16:45.366Z,17.80
2023-07-19T05:19:13.420Z,17.70
2023-07-19T05:21:40.765Z,17.60
2023-07-19T05:24:08.234Z,17.50
2023-07-19T05:26:36.518Z,17.40
2023-07-19T05:29:05.592Z,17.30
2023-07-19T05:31:33.192Z,17.30
2023-07-19T05:34:00.590Z,17.30
2023-07-19T05:36:28.055Z,17.30
2023-07-19T05:38:55.868Z,17.40
2023-07-19T05:41:23.728Z,17.40
2023-07-19T05:44:05.473Z,17.50
2023-07-19T05:46:38.041Z,17.60
2023-07-19T05:49:05.406Z,17.70
2023-07-19T05:51:32.845Z,17.60
2023-07-19T05:54:00.141Z,17.60
2023-07-19T05:56:27.961Z,17.50
2023-07-19T05:58:55.856Z,17.50
2023-07-19T06:01:27.356Z,17.50
2023-07-19T06:03:57.416Z,17.60
2023-07-19T06:06:26.546Z,17.80
2023-07-19T06:08:54.349Z,17.90
2023-07-19T06:11:21.953Z,18.00
2023-07-19T06:13:49.954Z,18.00
2023-07-19T06:16:17.363Z,18.20
2023-07-19T06:18:44.850Z,18.40
2023-07-19T06:21:12.106Z,18.60
2023-07-19T06:23:39.713Z,18.60
2023-07-19T06:26:07.080Z,18.70
2023-07-19T06:28:34.596Z,18.90
2023-07-19T06:31:02.831Z,19.00
2023-07-19T06:33:30.797Z,19.20
2023-07-19T06:35:58.969Z,19.30
2023-07-19T06:38:27.269Z,19.30
2023-07-19T06:40:54.617Z,19.30
2023-07-19T06:43:21.994Z,19.20
2023-07-19T06:45:50.473Z,19.20
2023-07-19T06:48:18.223Z,19.10
2023-07-19T06:50:45.451Z,19.10
2023-07-19T06:53:12.853Z,19.20
2023-07-19T06:55:40.345Z,19.20
2023-07-19T06:58:08.907Z,19.10
2023-07-19T07:00:36.317Z,19.20
2023-07-19T07:03:05.341Z,19.20
2023-07-19T07:05:34.823Z,19.30
2023-07-19T07:08:02.239Z,19.60
2023-07-19T07:10:29.682Z,19.90
2023-07-19T07:12:57.765Z,20.20
2023-07-19T07:15:25.104Z,20.50
2023-07-19T07:17:52.673Z,20.70
2023-07-19T07:20:20.011Z,21.20
2023-07-19T07:22:47.418Z,21.60
2023-07-19T07:25:14.790Z,22.00
2023-07-19T07:27:42.224Z,22.10
2023-07-19T07:30:11.047Z,22.10
2023-07-19T07:32:38.625Z,22.10
2023-07-19T07:35:07.963Z,22.00
2023-07-19T07:37:36.245Z,22.40
2023-07-19T07:40:04.519Z,22.70
2023-07-19T07:42:33.076Z,22.90
2023-07-19T07:45:00.320Z,23.10
2023-07-19T07:47:28.052Z,23.30
2023-07-19T07:49:57.236Z,23.40
2023-07-19T07:52:26.041Z,23.60
2023-07-19T07:54:53.422Z,23.50
2023-07-19T07:57:20.783Z,24.00
2023-07-19T07:59:48.530Z,24.20
2023-07-19T08:02:15.941Z,24.20
2023-07-19T08:04:43.391Z,23.80
2023-07-19T08:07:10.900Z,24.00
2023-07-19T08:09:38.253Z,24.00
2023-07-19T08:12:06.983Z,24.30
2023-07-19T08:14:34.333Z,24.60
2023-07-19T08:17:03.202Z,24.90
2023-07-19T08:19:30.771Z,25.20
2023-07-19T08:22:05.560Z,25.30
2023-07-19T08:24:33.533Z,25.50
2023-07-19T08:27:00.817Z,25.60
2023-07-19T08:29:28.857Z,25.90
2023-07-19T08:31:56.134Z,26.20
2023-07-19T08:34:23.618Z,26.40
2023-07-19T08:36:51.025Z,26.30
2023-07-19T08:39:18.435Z,26.30
2023-07-19T08:41:46.094Z,26.40
2023-07-19T08:44:13.543Z,26.70
2023-07-19T08:46:44.668Z,27.00
2023-07-19T08:49:12.142Z,27.20
2023-07-19T08:51:41.602Z,27.40
2023-07-19T08:54:09.599Z,27.50
2023-07-19T08:56:36.998Z,27.70
2023-07-19T08:59:04.808Z,27.70
2023-07-19T09:01:32.090Z,27.80
2023-07-19T09:03:59.560Z,28.00
2023-07-19T09:06:31.504Z,28.00
2023-07-19T09:08:59.029Z,27.90
2023-07-19T09:11:27.076Z,28.10
2023-07-19T09:13:56.229Z,28.20
2023-07-19T09:16:26.980Z,28.20
2023-07-19T09:18:55.726Z,28.20
2023-07-19T09:21:26.570Z,28.40
2023-07-19T09:23:54.962Z,28.50
2023-07-19T09:26:22.363Z,28.50
2023-07-19T09:28:52.916Z,28.70
2023-07-19T09:31:25.525Z,28.90
2023-07-19T09:33:57.086Z,28.90
2023-07-19T09:36:25.001Z,28.90
2023-07-19T09:38:54.563Z,29.10
2023-07-19T09:41:24.062Z,29.20
2023-07-19T09:43:54.201Z,29.20
2023-07-19T09:46:22.342Z,29.30
2023-07-19T09:48:50.253Z,29.50
2023-07-19T09:51:20.505Z,29.50
2023-07-19T09:53:50.697Z,29.60
2023-07-19T09:56:18.130Z,29.30
2023-07-19T09:58:46.701Z,29.20
2023-07-19T10:01:15.082Z,29.50
2023-07-19T10:03:45.844Z,29.70
2023-07-19T10:06:16.061Z,30.00
2023-07-19T10:08:43.664Z,30.10
2023-07-19T10:11:24.705Z,30.10
2023-07-19T10:16:35.256Z,30.20
2023-07-19T10:19:06.201Z,30.00
2023-07-19T10:21:33.609Z,29.80
2023-07-19T10:24:07.254Z,29.90
2023-07-19T10:26:37.562Z,30.00
2023-07-19T10:29:05.810Z,30.00
2023-07-19T10:31:35.841Z,29.80
2023-07-19T10:34:04.850Z,30.10
2023-07-19T10:36:32.631Z,30.30
2023-07-19T10:38:59.979Z,30.40
2023-07-19T10:41:27.411Z,30.40
2023-07-19T10:44:01.376Z,30.10
2023-07-19T10:46:31.228Z,29.60
2023-07-19T10:49:00.756Z,29.70
2023-07-19T10:51:28.635Z,29.80
2023-07-19T10:53:58.343Z,30.00
2023-07-19T10:56:28.496Z,30.20
2023-07-19T10:59:00.300Z,30.40
2023-07-19T11:01:30.657Z,30.50
2023-07-19T11:04:02.639Z,30.40
2023-07-19T11:06:30.153Z,30.30
2023-07-19T11:09:06.244Z,30.30
2023-07-19T11:11:39.285Z,30.60
2023-07-19T11:14:07.641Z,30.60
2023-07-19T11:16:36.211Z,30.80
2023-07-19T11:19:04.652Z,30.70
2023-07-19T11:21:32.132Z,30.90
2023-07-19T11:23:59.536Z,31.00
2023-07-19T11:26:26.816Z,31.00
2023-07-19T11:28:57.557Z,31.10
2023-07-19T11:31:28.150Z,31.20
2023-07-19T11:33:58.496Z,31.20
2023-07-19T11:36:27.312Z,31.20
2023-07-19T11:38:56.441Z,31.00
2023-07-19T11:41:24.267Z,30.80
2023-07-19T11:43:52.621Z,30.90
2023-07-19T11:46:20.132Z,31.10
2023-07-19T11:48:47.683Z,31.00
2023-07-19T11:51:15.841Z,31.00
2023-07-19T11:53:43.247Z,30.80
2023-07-19T11:56:12.052Z,30.60
2023-07-19T11:58:46.574Z,30.60
2023-07-19T12:01:15.367Z,30.60
2023-07-19T12:03:43.765Z,30.60
2023-07-19T12:06:12.384Z,30.80
2023-07-19T12:08:40.032Z,31.00
2023-07-19T12:11:08.276Z,30.60
2023-07-19T12:13:36.928Z,30.60
2023-07-19T12:16:05.813Z,30.50
2023-07-19T12:18:33.209Z,30.60
2023-07-19T12:21:00.611Z,30.70
2023-07-19T12:25:58.413Z,30.70
2023-07-19T12:28:25.735Z,30.70
2023-07-19T12:30:53.512Z,30.90
2023-07-19T12:33:20.824Z,30.90
2023-07-19T12:35:48.969Z,30.80
2023-07-19T12:38:17.000Z,30.70
2023-07-19T12:40:46.854Z,30.30
2023-07-19T12:43:15.322Z,29.90
2023-07-19T12:45:43.707Z,29.90
2023-07-19T12:48:11.460Z,29.50
2023-07-19T12:50:38.971Z,29.40
2023-07-19T12:53:07.048Z,29.50
2023-07-19T12:55:34.539Z,29.80
2023-07-19T12:58:01.951Z,29.50
2023-07-19T13:00:29.574Z,29.30
2023-07-19T13:02:57.233Z,29.00
2023-07-19T13:05:24.734Z,28.80
2023-07-19T13:07:52.163Z,28.70
2023-07-19T13:10:19.513Z,28.70
2023-07-19T13:12:46.766Z,28.80
2023-07-19T13:15:14.206Z,28.80
2023-07-19T13:17:42.691Z,29.00
2023-07-19T13:20:11.357Z,29.10
2023-07-19T13:22:39.460Z,29.20
2023-07-19T13:25:07.439Z,29.30
2023-07-19T13:27:36.256Z,29.20
2023-07-19T13:30:08.640Z,28.90
2023-07-19T13:32:36.775Z,28.70
2023-07-19T13:35:04.600Z,28.80
2023-07-19T13:40:02.552Z,29.10
2023-07-19T13:42:33.829Z,29.30
2023-07-19T13:45:02.563Z,29.20
2023-07-19T13:47:30.258Z,29.00
2023-07-19T13:49:57.743Z,28.90
2023-07-19T13:52:24.993Z,29.00
2023-07-19T13:54:52.997Z,29.10
2023-07-19T13:57:20.357Z,29.10
2023-07-19T13:59:47.793Z,29.20
2023-07-19T14:02:15.182Z,29.50
2023-07-19T14:04:43.596Z,29.50
2023-07-19T14:07:12.640Z,29.30
2023-07-19T14:09:42.384Z,29.20
2023-07-19T14:12:14.655Z,29.20
2023-07-19T14:17:12.963Z,28.80
2023-07-19T14:19:40.435Z,28.80
2023-07-19T14:22:07.972Z,28.90
2023-07-19T14:24:37.402Z,28.90
2023-07-19T14:27:06.212Z,28.90
2023-07-19T14:29:33.555Z,28.70
2023-07-19T14:32:02.176Z,28.60
2023-07-19T14:34:38.902Z,28.50
2023-07-19T14:37:07.461Z,28.40
2023-07-19T14:39:34.762Z,28.30
2023-07-19T14:42:02.215Z,28.30
2023-07-19T14:44:29.697Z,28.00
2023-07-19T14:46:58.512Z,27.80
2023-07-19T14:49:27.179Z,27.70
2023-07-19T14:51:55.029Z,27.80
2023-07-19T14:54:22.352Z,27.80
2023-07-19T14:56:51.310Z,27.80
2023-07-19T14:59:18.656Z,27.80
2023-07-19T15:01:46.030Z,27.90
2023-07-19T15:04:14.375Z,28.00
2023-07-19T15:06:43.410Z,28.00
2023-07-19T15:09:11.160Z,27.90
2023-07-19T15:11:38.944Z,27.90
2023-07-19T15:14:06.911Z,27.80
2023-07-19T15:16:34.685Z,27.80
2023-07-19T15:21:32.993Z,27.60
2023-07-19T15:24:00.376Z,27.60
2023-07-19T15:26:34.259Z,27.70
2023-07-19T15:29:03.644Z,27.70
2023-07-19T15:31:31.122Z,27.60
2023-07-19T15:33:58.597Z,27.60
2023-07-19T15:36:27.638Z,27.50
2023-07-19T15:38:56.390Z,27.50
2023-07-19T15:41:24.907Z,27.40
2023-07-19T15:43:53.242Z,27.40
2023-07-19T15:46:20.472Z,27.40
2023-07-19T15:48:48.072Z,27.40
2023-07-19T15:51:15.604Z,27.40
2023-07-19T15:53:43.970Z,27.20
2023-07-19T15:56:11.915Z,27.00
2023-07-19T15:58:40.119Z,26.90
2023-07-19T16:01:08.318Z,26.90
2023-07-19T16:03:37.242Z,26.90
2023-07-19T16:06:08.014Z,26.90
2023-07-19T16:08:36.893Z,26.80
2023-07-19T16:11:04.302Z,26.90
2023-07-19T16:13:32.445Z,27.00
2023-07-19T16:16:00.559Z,27.00
2023-07-19T16:18:28.028Z,27.10
2023-07-19T16:20:55.993Z,27.20
2023-07-19T16:23:23.378Z,27.30
2023-07-19T16:25:50.553Z,27.30
2023-07-19T16:28:17.839Z,27.30
2023-07-19T16:30:45.118Z,27.20
2023-07-19T16:33:12.404Z,27.10
2023-07-19T16:35:39.590Z,26.90
2023-07-19T16:38:10.434Z,26.80
2023-07-19T16:40:38.522Z,26.70
2023-07-19T16:43:06.413Z,26.80
2023-07-19T16:45:33.926Z,26.90
2023-07-19T16:48:01.096Z,27.00
2023-07-19T16:50:28.770Z,27.00
2023-07-19T16:53:03.514Z,27.00
2023-07-19T16:55:31.261Z,26.80
2023-07-19T16:58:03.626Z,26.50
2023-07-19T17:00:31.230Z,26.40
2023-07-19T17:02:58.986Z,26.30
2023-07-19T17:05:27.284Z,26.30
2023-07-19T17:07:55.776Z,26.20
2023-07-19T17:10:23.326Z,26.20
2023-07-19T17:12:50.490Z,26.20
2023-07-19T17:15:17.796Z,26.20
2023-07-19T17:17:45.114Z,26.20
2023-07-19T17:20:12.533Z,26.10
2023-07-19T17:22:41.275Z,26.00
2023-07-19T17:25:09.007Z,25.90
2023-07-19T17:27:36.425Z,25.90
2023-07-19T17:30:04.068Z,25.90
2023-07-19T17:32:31.546Z,25.90
2023-07-19T17:34:58.735Z,25.80
2023-07-19T17:37:26.004Z,25.80
2023-07-19T17:39:53.187Z,25.70
2023-07-19T17:42:21.958Z,25.70
2023-07-19T17:44:49.045Z,25.60
2023-07-19T17:47:16.397Z,25.50
2023-07-19T17:49:43.578Z,25.50
2023-07-19T17:52:10.923Z,25.50
2023-07-19T17:54:38.182Z,25.40
2023-07-19T17:57:07.280Z,25.30
2023-07-19T17:59:34.410Z,25.20
2023-07-19T18:02:01.759Z,25.10
2023-07-19T18:04:28.920Z,25.00
2023-07-19T18:06:56.280Z,25.00
2023-07-19T18:09:23.579Z,25.00
2023-07-19T18:11:51.455Z,24.80
2023-07-19T18:14:19.009Z,24.80
2023-07-19T18:16:46.390Z,24.80
2023-07-19T18:19:13.714Z,24.70
2023-07-19T18:21:47.722Z,24.60
2023-07-19T18:24:21.851Z,24.50
2023-07-19T18:26:49.204Z,24.40
2023-07-19T18:29:18.034Z,24.40
2023-07-19T18:31:46.602Z,24.30
2023-07-19T18:34:13.879Z,24.20
2023-07-19T18:36:41.237Z,24.20
2023-07-19T18:39:08.554Z,24.10
2023-07-19T18:41:35.905Z,24.00
2023-07-19T18:44:03.303Z,23.90
2023-07-19T18:46:30.649Z,23.90
2023-07-19T18:48:59.219Z,23.70
2023-07-19T18:51:26.534Z,23.70
2023-07-19T18:53:53.962Z,23.70
2023-07-19T18:56:24.684Z,23.60
2023-07-19T18:58:52.070Z,23.50
2023-07-19T19:01:19.761Z,23.40
2023-07-19T19:03:48.969Z,23.40
2023-07-19T19:06:17.269Z,23.30
2023-07-19T19:08:44.686Z,23.20
2023-07-19T19:11:12.274Z,23.10
2023-07-19T19:13:39.442Z,23.10
2023-07-19T19:16:06.769Z,23.00
2023-07-19T19:18:34.169Z,23.00
2023-07-19T19:21:01.435Z,22.90
2023-07-19T19:23:29.808Z,22.90
2023-07-19T19:25:57.231Z,22.90
2023-07-19T19:28:24.598Z,22.80
2023-07-19T19:30:52.065Z,22.80
2023-07-19T19:33:19.478Z,22.70
2023-07-19T19:35:46.654Z,22.70
2023-07-19T19:38:14.255Z,22.60
2023-07-19T19:40:43.319Z,22.60
2023-07-19T19:43:10.626Z,22.50
2023-07-19T19:45:37.787Z,22.50
2023-07-19T19:48:05.286Z,22.40
2023-07-19T19:50:32.599Z,22.30
2023-07-19T19:53:09.338Z,22.30
2023-07-19T19:58:08.256Z,22.20
2023-07-19T20:00:36.052Z,22.20
2023-07-19T20:08:04.115Z,22.00
2023-07-19T20:10:31.496Z,22.00
2023-07-19T20:12:59.662Z,22.00
2023-07-19T20:15:27.264Z,21.90
2023-07-19T20:17:55.526Z,21.90
2023-07-19T20:20:42.027Z,21.90
2023-07-19T20:23:13.461Z,21.80
2023-07-19T20:26:02.347Z,21.80
2023-07-19T20:28:28.947Z,21.70
2023-07-19T20:31:05.718Z,21.70
2023-07-19T20:33:34.471Z,21.70
2023-07-19T20:43:34.911Z,21.70
2023-07-19T20:46:07.040Z,21.80
2023-07-19T20:48:36.166Z,21.70
2023-07-19T20:51:09.694Z,21.70
2023-07-19T20:53:37.317Z,21.70
2023-07-19T20:56:05.218Z,21.70
2023-07-19T20:58:32.591Z,21.70
2023-07-19T21:01:00.984Z,21.70
2023-07-19T21:03:28.491Z,21.60
2023-07-19T21:05:55.734Z,21.60
2023-07-19T21:08:23.782Z,21.60
2023-07-19T21:10:50.960Z,21.60
2023-07-19T21:13:18.307Z,21.60
2023-07-19T21:15:45.500Z,21.50
2023-07-19T21:18:12.755Z,21.50
2023-07-19T21:20:39.937Z,21.50
2023-07-19T21:23:07.696Z,21.60
2023-07-19T21:25:34.875Z,21.60
2023-07-19T21:28:02.089Z,21.60
2023-07-19T21:30:29.417Z,21.60
2023-07-19T21:32:56.645Z,21.60
2023-07-19T21:35:23.863Z,21.50
2023-07-19T21:37:51.228Z,21.40
2023-07-19T21:40:18.825Z,21.40
2023-07-19T21:42:46.121Z,21.30
2023-07-19T21:45:13.983Z,21.20
2023-07-19T21:47:41.327Z,21.10
2023-07-19T21:50:08.717Z,21.00
2023-07-19T21:52:36.081Z,21.00
2023-07-19T21:55:03.328Z,21.00
2023-07-19T21:57:30.612Z,21.00
2023-07-19T21:59:59.339Z,21.00
2023-07-19T22:02:26.974Z,21.00
2023-07-19T22:04:54.724Z,21.00
2023-07-19T22:07:22.235Z,21.00
2023-07-19T22:09:49.402Z,21.00
2023-07-19T22:12:16.734Z,21.00
2023-07-19T22:14:50.926Z,21.00
2023-07-19T22:17:25.381Z,21.00
2023-07-19T22:19:52.664Z,21.00
2023-07-19T22:22:20.016Z,21.00
2023-07-19T22:24:47.182Z,21.00
2023-07-19T22:27:14.504Z,21.00
2023-07-19T22:29:41.685Z,21.00
2023-07-19T22:32:09.065Z,21.00
2023-07-19T22:34:36.346Z,20.90
2023-07-19T22:37:03.593Z,20.90
2023-07-19T22:39:30.782Z,20.80
2023-07-19T22:41:58.277Z,20.70
2023-07-19T22:44:25.489Z,20.70
2023-07-19T22:46:52.751Z,20.70
2023-07-19T22:49:21.337Z,20.70
2023-07-19T22:51:48.657Z,20.70
2023-07-19T22:54:18.532Z,20.70
2023-07-19T22:56:45.851Z,20.60
2023-07-19T22:59:13.046Z,20.60
2023-07-19T23:01:40.822Z,20.60
2023-07-19T23:04:08.143Z,20.50
2023-07-19T23:06:37.531Z,20.60
2023-07-19T23:09:06.241Z,20.50
2023-07-19T23:11:38.982Z,20.50
2023-07-19T23:14:09.577Z,20.40
2023-07-19T23:16:36.904Z,20.40
2023-07-19T23:19:04.398Z,20.40
2023-07-19T23:21:31.611Z,20.40
2023-07-19T23:23:58.956Z,20.40
2023-07-19T23:26:26.252Z,20.40
2023-07-19T23:28:54.834Z,20.30
2023-07-19T23:31:22.125Z,20.30
2023-07-19T23:33:49.643Z,20.30
2023-07-19T23:36:16.863Z,20.20
2023-07-19T23:38:46.210Z,20.20
2023-07-19T23:41:13.681Z,20.00
2023-07-19T23:43:41.019Z,19.90
2023-07-19T23:46:11.246Z,19.70
2023-07-19T23:48:38.622Z,19.50
2023-07-19T23:51:06.008Z,19.50
2023-07-19T23:53:33.262Z,19.60
2023-07-19T23:56:00.567Z,19.70
2023-07-19T23:58:28.074Z,19.70
